sensor_id;sensor_type;location;lat;lon;timestamp;P1;durP1;ratioP1;P2;durP2;ratioP2
70322;SDS011;57735;56.264;43.898;2022-09-16T00:00:35;30.17;;;10.77;;
70322;SDS011;57735;56.264;43.898;2022-09-16T00:03:06;21.85;;;11.50;;
70322;SDS011;57735;56.264;43.898;2022-09-16T00:05:41;25.33;;;11.55;;
70322;SDS011;57735;56.264;43.898;2022-09-16T00:08:15;28.13;;;11.88;;
70322;SDS011;57735;56.264;43.898;2022-09-16T00:10:46;24.20;;;12.35;;
70322;SDS011;57735;56.264;43.898;2022-09-16T00:13:18;23.48;;;12.02;;
70322;SDS011;57735;56.264;43.898;2022-09-16T00:15:51;20.75;;;11.15;;
70322;SDS011;57735;56.264;43.898;2022-09-16T00:18:22;20.42;;;11.90;;
70322;SDS011;57735;56.264;43.898;2022-09-16T00:20:52;22.08;;;12.15;;
70322;SDS011;57735;56.264;43.898;2022-09-16T00:23:24;18.83;;;10.55;;
70322;SDS011;57735;56.264;43.898;2022-09-16T00:25:55;19.67;;;10.18;;
70322;SDS011;57735;56.264;43.898;2022-09-16T00:28:26;18.00;;;9.82;;
70322;SDS011;57735;56.264;43.898;2022-09-16T00:31:00;18.23;;;10.13;;
70322;SDS011;57735;56.264;43.898;2022-09-16T00:33:31;19.23;;;10.50;;
70322;SDS011;57735;56.264;43.898;2022-09-16T00:36:06;20.58;;;10.05;;
70322;SDS011;57735;56.264;43.898;2022-09-16T00:38:45;17.63;;;10.40;;
70322;SDS011;57735;56.264;43.898;2022-09-16T00:41:26;21.40;;;10.80;;
70322;SDS011;57735;56.264;43.898;2022-09-16T00:44:03;18.88;;;10.35;;
70322;SDS011;57735;56.264;43.898;2022-09-16T00:49:17;20.05;;;10.65;;
70322;SDS011;57735;56.264;43.898;2022-09-16T00:51:59;20.77;;;10.93;;
70322;SDS011;57735;56.264;43.898;2022-09-16T00:54:33;25.65;;;12.52;;
70322;SDS011;57735;56.264;43.898;2022-09-16T00:57:06;33.10;;;12.63;;
70322;SDS011;57735;56.264;43.898;2022-09-16T01:02:17;58.47;;;18.40;;
70322;SDS011;57735;56.264;43.898;2022-09-16T01:07:32;63.38;;;21.05;;
70322;SDS011;57735;56.264;43.898;2022-09-16T01:10:09;57.85;;;21.17;;
70322;SDS011;57735;56.264;43.898;2022-09-16T01:12:42;65.63;;;21.10;;
70322;SDS011;57735;56.264;43.898;2022-09-16T01:15:16;68.55;;;23.05;;
70322;SDS011;57735;56.264;43.898;2022-09-16T01:21:02;41.22;;;15.88;;
70322;SDS011;57735;56.264;43.898;2022-09-16T01:26:33;37.13;;;15.25;;
70322;SDS011;57735;56.264;43.898;2022-09-16T01:32:03;25.27;;;12.43;;
70322;SDS011;57735;56.264;43.898;2022-09-16T01:37:24;42.45;;;18.23;;
70322;SDS011;57735;56.264;43.898;2022-09-16T01:43:16;65.95;;;31.63;;
70322;SDS011;57735;56.264;43.898;2022-09-16T01:48:44;69.93;;;30.73;;
70322;SDS011;57735;56.264;43.898;2022-09-16T01:57:05;47.28;;;19.65;;
70322;SDS011;57735;56.264;43.898;2022-09-16T01:59:41;53.38;;;20.25;;
70322;SDS011;57735;56.264;43.898;2022-09-16T02:02:23;48.05;;;18.10;;
70322;SDS011;57735;56.264;43.898;2022-09-16T02:05:02;44.13;;;15.63;;
70322;SDS011;57735;56.264;43.898;2022-09-16T02:07:38;38.17;;;15.82;;
70322;SDS011;57735;56.264;43.898;2022-09-16T02:10:24;41.72;;;17.38;;
70322;SDS011;57735;56.264;43.898;2022-09-16T02:13:07;47.05;;;17.65;;
70322;SDS011;57735;56.264;43.898;2022-09-16T02:15:50;54.05;;;21.00;;
70322;SDS011;57735;56.264;43.898;2022-09-16T02:18:24;55.72;;;21.15;;
70322;SDS011;57735;56.264;43.898;2022-09-16T02:21:00;59.15;;;20.88;;
70322;SDS011;57735;56.264;43.898;2022-09-16T02:23:38;38.92;;;15.93;;
70322;SDS011;57735;56.264;43.898;2022-09-16T02:26:14;39.08;;;15.40;;
70322;SDS011;57735;56.264;43.898;2022-09-16T02:28:50;30.90;;;12.50;;
70322;SDS011;57735;56.264;43.898;2022-09-16T02:31:27;29.13;;;12.45;;
70322;SDS011;57735;56.264;43.898;2022-09-16T02:34:06;21.25;;;11.15;;
70322;SDS011;57735;56.264;43.898;2022-09-16T02:36:51;26.23;;;12.07;;
70322;SDS011;57735;56.264;43.898;2022-09-16T02:39:27;20.98;;;10.77;;
70322;SDS011;57735;56.264;43.898;2022-09-16T02:42:01;23.92;;;11.48;;
70322;SDS011;57735;56.264;43.898;2022-09-16T02:44:32;21.83;;;11.35;;
70322;SDS011;57735;56.264;43.898;2022-09-16T02:47:07;26.92;;;11.90;;
70322;SDS011;57735;56.264;43.898;2022-09-16T02:49:54;23.60;;;11.65;;
70322;SDS011;57735;56.264;43.898;2022-09-16T02:55:26;23.17;;;11.68;;
70322;SDS011;57735;56.264;43.898;2022-09-16T02:58:31;26.38;;;12.85;;
70322;SDS011;57735;56.264;43.898;2022-09-16T03:01:04;25.75;;;11.80;;
70322;SDS011;57735;56.264;43.898;2022-09-16T03:03:36;28.25;;;11.90;;
70322;SDS011;57735;56.264;43.898;2022-09-16T03:06:17;23.20;;;13.00;;
70322;SDS011;57735;56.264;43.898;2022-09-16T03:08:57;25.70;;;12.60;;
70322;SDS011;57735;56.264;43.898;2022-09-16T03:20:09;25.95;;;12.00;;
70322;SDS011;57735;56.264;43.898;2022-09-16T03:22:50;25.63;;;12.30;;
70322;SDS011;57735;56.264;43.898;2022-09-16T03:31:02;28.50;;;12.18;;
70322;SDS011;57735;56.264;43.898;2022-09-16T03:36:24;25.30;;;11.32;;
70322;SDS011;57735;56.264;43.898;2022-09-16T03:39:00;25.90;;;11.65;;
70322;SDS011;57735;56.264;43.898;2022-09-16T03:41:32;24.65;;;11.93;;
70322;SDS011;57735;56.264;43.898;2022-09-16T03:46:37;21.85;;;10.32;;
70322;SDS011;57735;56.264;43.898;2022-09-16T03:49:08;20.08;;;10.98;;
70322;SDS011;57735;56.264;43.898;2022-09-16T03:51:40;18.92;;;9.90;;
70322;SDS011;57735;56.264;43.898;2022-09-16T03:54:10;18.83;;;9.82;;
70322;SDS011;57735;56.264;43.898;2022-09-16T03:56:44;20.35;;;10.90;;
70322;SDS011;57735;56.264;43.898;2022-09-16T03:59:15;19.58;;;11.02;;
70322;SDS011;57735;56.264;43.898;2022-09-16T04:01:46;21.13;;;10.30;;
70322;SDS011;57735;56.264;43.898;2022-09-16T04:04:17;21.85;;;10.38;;
70322;SDS011;57735;56.264;43.898;2022-09-16T04:06:48;21.60;;;10.77;;
70322;SDS011;57735;56.264;43.898;2022-09-16T04:09:19;22.25;;;10.00;;
70322;SDS011;57735;56.264;43.898;2022-09-16T04:11:51;22.23;;;10.25;;
70322;SDS011;57735;56.264;43.898;2022-09-16T04:14:22;21.80;;;11.27;;
70322;SDS011;57735;56.264;43.898;2022-09-16T04:16:54;21.67;;;11.23;;
70322;SDS011;57735;56.264;43.898;2022-09-16T04:19:25;20.98;;;10.55;;
70322;SDS011;57735;56.264;43.898;2022-09-16T04:21:58;19.88;;;10.63;;
70322;SDS011;57735;56.264;43.898;2022-09-16T04:24:29;19.52;;;9.98;;
70322;SDS011;57735;56.264;43.898;2022-09-16T04:27:10;19.65;;;10.68;;
70322;SDS011;57735;56.264;43.898;2022-09-16T04:29:41;19.23;;;10.60;;
70322;SDS011;57735;56.264;43.898;2022-09-16T04:32:12;19.50;;;11.05;;
70322;SDS011;57735;56.264;43.898;2022-09-16T04:34:43;18.85;;;10.63;;
70322;SDS011;57735;56.264;43.898;2022-09-16T04:37:14;23.70;;;10.52;;
70322;SDS011;57735;56.264;43.898;2022-09-16T04:39:45;19.65;;;10.70;;
70322;SDS011;57735;56.264;43.898;2022-09-16T04:42:16;16.98;;;10.02;;
70322;SDS011;57735;56.264;43.898;2022-09-16T04:44:47;19.25;;;10.75;;
70322;SDS011;57735;56.264;43.898;2022-09-16T04:47:17;18.15;;;10.27;;
70322;SDS011;57735;56.264;43.898;2022-09-16T04:49:48;18.55;;;10.70;;
70322;SDS011;57735;56.264;43.898;2022-09-16T04:52:19;19.38;;;10.65;;
70322;SDS011;57735;56.264;43.898;2022-09-16T04:54:50;23.23;;;10.75;;
70322;SDS011;57735;56.264;43.898;2022-09-16T04:57:21;15.48;;;10.27;;
70322;SDS011;57735;56.264;43.898;2022-09-16T04:59:51;20.15;;;10.15;;
70322;SDS011;57735;56.264;43.898;2022-09-16T05:02:24;17.73;;;10.43;;
70322;SDS011;57735;56.264;43.898;2022-09-16T05:04:56;17.00;;;11.10;;
70322;SDS011;57735;56.264;43.898;2022-09-16T05:07:27;17.77;;;10.30;;
70322;SDS011;57735;56.264;43.898;2022-09-16T05:09:59;17.23;;;9.52;;
70322;SDS011;57735;56.264;43.898;2022-09-16T05:12:34;20.38;;;10.07;;
70322;SDS011;57735;56.264;43.898;2022-09-16T05:15:07;17.67;;;10.50;;
70322;SDS011;57735;56.264;43.898;2022-09-16T05:17:38;20.08;;;10.90;;
70322;SDS011;57735;56.264;43.898;2022-09-16T05:20:09;22.05;;;10.45;;
70322;SDS011;57735;56.264;43.898;2022-09-16T05:22:40;24.48;;;10.77;;
70322;SDS011;57735;56.264;43.898;2022-09-16T05:25:14;19.05;;;9.93;;
70322;SDS011;57735;56.264;43.898;2022-09-16T05:27:44;26.43;;;10.07;;
70322;SDS011;57735;56.264;43.898;2022-09-16T05:30:16;16.73;;;10.35;;
70322;SDS011;57735;56.264;43.898;2022-09-16T05:32:47;18.52;;;9.93;;
70322;SDS011;57735;56.264;43.898;2022-09-16T05:35:27;15.20;;;9.68;;
70322;SDS011;57735;56.264;43.898;2022-09-16T05:37:57;14.52;;;9.73;;
70322;SDS011;57735;56.264;43.898;2022-09-16T05:40:28;17.83;;;10.02;;
70322;SDS011;57735;56.264;43.898;2022-09-16T05:42:59;16.33;;;9.88;;
70322;SDS011;57735;56.264;43.898;2022-09-16T05:45:31;21.17;;;10.70;;
70322;SDS011;57735;56.264;43.898;2022-09-16T05:48:01;16.00;;;8.68;;
70322;SDS011;57735;56.264;43.898;2022-09-16T05:50:32;16.92;;;9.73;;
70322;SDS011;57735;56.264;43.898;2022-09-16T05:53:03;16.42;;;9.68;;
70322;SDS011;57735;56.264;43.898;2022-09-16T05:55:34;15.68;;;9.68;;
70322;SDS011;57735;56.264;43.898;2022-09-16T05:58:04;21.27;;;9.73;;
70322;SDS011;57735;56.264;43.898;2022-09-16T06:00:35;17.20;;;10.98;;
70322;SDS011;57735;56.264;43.898;2022-09-16T06:03:06;17.05;;;10.35;;
70322;SDS011;57735;56.264;43.898;2022-09-16T06:05:37;27.88;;;13.63;;
70322;SDS011;57735;56.264;43.898;2022-09-16T06:08:08;38.22;;;19.10;;
70322;SDS011;57735;56.264;43.898;2022-09-16T06:10:39;39.70;;;20.55;;
70322;SDS011;57735;56.264;43.898;2022-09-16T06:13:10;22.08;;;11.77;;
70322;SDS011;57735;56.264;43.898;2022-09-16T06:16:02;21.92;;;11.13;;
70322;SDS011;57735;56.264;43.898;2022-09-16T06:18:35;26.27;;;11.55;;
70322;SDS011;57735;56.264;43.898;2022-09-16T06:21:08;21.33;;;11.60;;
70322;SDS011;57735;56.264;43.898;2022-09-16T06:23:40;15.77;;;9.75;;
70322;SDS011;57735;56.264;43.898;2022-09-16T06:26:30;18.85;;;10.38;;
70322;SDS011;57735;56.264;43.898;2022-09-16T06:29:00;17.92;;;9.70;;
70322;SDS011;57735;56.264;43.898;2022-09-16T06:31:32;16.80;;;9.82;;
70322;SDS011;57735;56.264;43.898;2022-09-16T06:34:06;17.70;;;9.52;;
70322;SDS011;57735;56.264;43.898;2022-09-16T06:36:40;19.50;;;9.13;;
70322;SDS011;57735;56.264;43.898;2022-09-16T06:39:12;17.17;;;9.43;;
70322;SDS011;57735;56.264;43.898;2022-09-16T06:41:44;19.88;;;11.68;;
70322;SDS011;57735;56.264;43.898;2022-09-16T06:44:15;19.52;;;9.73;;
70322;SDS011;57735;56.264;43.898;2022-09-16T06:46:46;16.55;;;9.13;;
70322;SDS011;57735;56.264;43.898;2022-09-16T06:49:16;17.35;;;8.68;;
70322;SDS011;57735;56.264;43.898;2022-09-16T06:51:47;15.68;;;8.93;;
70322;SDS011;57735;56.264;43.898;2022-09-16T06:54:20;17.90;;;8.55;;
70322;SDS011;57735;56.264;43.898;2022-09-16T06:56:51;17.52;;;10.23;;
70322;SDS011;57735;56.264;43.898;2022-09-16T06:59:25;14.93;;;8.98;;
70322;SDS011;57735;56.264;43.898;2022-09-16T07:01:59;14.30;;;9.25;;
70322;SDS011;57735;56.264;43.898;2022-09-16T07:04:30;16.33;;;8.70;;
70322;SDS011;57735;56.264;43.898;2022-09-16T07:07:01;13.73;;;8.38;;
70322;SDS011;57735;56.264;43.898;2022-09-16T07:09:32;13.75;;;8.02;;
70322;SDS011;57735;56.264;43.898;2022-09-16T07:12:04;13.77;;;7.53;;
70322;SDS011;57735;56.264;43.898;2022-09-16T07:14:37;12.55;;;8.05;;
70322;SDS011;57735;56.264;43.898;2022-09-16T07:17:09;11.68;;;7.60;;
70322;SDS011;57735;56.264;43.898;2022-09-16T07:19:40;14.13;;;8.60;;
70322;SDS011;57735;56.264;43.898;2022-09-16T07:22:11;13.73;;;8.88;;
70322;SDS011;57735;56.264;43.898;2022-09-16T07:24:42;16.00;;;8.48;;
70322;SDS011;57735;56.264;43.898;2022-09-16T07:27:15;16.80;;;8.07;;
70322;SDS011;57735;56.264;43.898;2022-09-16T07:29:46;13.32;;;8.27;;
70322;SDS011;57735;56.264;43.898;2022-09-16T07:32:17;20.02;;;10.98;;
70322;SDS011;57735;56.264;43.898;2022-09-16T07:34:48;18.27;;;9.65;;
70322;SDS011;57735;56.264;43.898;2022-09-16T07:37:28;15.52;;;8.23;;
70322;SDS011;57735;56.264;43.898;2022-09-16T07:40:02;14.30;;;7.13;;
70322;SDS011;57735;56.264;43.898;2022-09-16T07:42:34;13.85;;;7.63;;
70322;SDS011;57735;56.264;43.898;2022-09-16T07:45:05;16.05;;;7.47;;
70322;SDS011;57735;56.264;43.898;2022-09-16T07:47:38;13.30;;;7.80;;
70322;SDS011;57735;56.264;43.898;2022-09-16T07:50:09;15.07;;;7.25;;
70322;SDS011;57735;56.264;43.898;2022-09-16T07:52:40;11.20;;;6.95;;
70322;SDS011;57735;56.264;43.898;2022-09-16T07:55:14;9.07;;;6.13;;
70322;SDS011;57735;56.264;43.898;2022-09-16T07:57:47;12.68;;;6.78;;
70322;SDS011;57735;56.264;43.898;2022-09-16T08:00:19;11.23;;;6.45;;
70322;SDS011;57735;56.264;43.898;2022-09-16T08:02:54;12.13;;;6.60;;
70322;SDS011;57735;56.264;43.898;2022-09-16T08:05:26;11.65;;;5.95;;
70322;SDS011;57735;56.264;43.898;2022-09-16T08:07:57;9.50;;;6.30;;
70322;SDS011;57735;56.264;43.898;2022-09-16T08:10:28;8.88;;;5.85;;
70322;SDS011;57735;56.264;43.898;2022-09-16T08:12:59;11.00;;;5.63;;
70322;SDS011;57735;56.264;43.898;2022-09-16T08:15:32;9.85;;;6.63;;
70322;SDS011;57735;56.264;43.898;2022-09-16T08:18:03;12.13;;;5.40;;
70322;SDS011;57735;56.264;43.898;2022-09-16T08:20:35;9.00;;;5.40;;
70322;SDS011;57735;56.264;43.898;2022-09-16T08:23:06;10.00;;;5.63;;
70322;SDS011;57735;56.264;43.898;2022-09-16T08:25:37;10.98;;;5.93;;
70322;SDS011;57735;56.264;43.898;2022-09-16T08:28:15;8.38;;;5.25;;
70322;SDS011;57735;56.264;43.898;2022-09-16T08:30:46;11.48;;;6.32;;
70322;SDS011;57735;56.264;43.898;2022-09-16T08:33:17;9.85;;;5.00;;
70322;SDS011;57735;56.264;43.898;2022-09-16T08:35:58;8.07;;;4.83;;
70322;SDS011;57735;56.264;43.898;2022-09-16T08:38:30;11.00;;;4.85;;
70322;SDS011;57735;56.264;43.898;2022-09-16T08:46:50;6.60;;;4.43;;
70322;SDS011;57735;56.264;43.898;2022-09-16T08:49:33;8.75;;;4.72;;
70322;SDS011;57735;56.264;43.898;2022-09-16T08:52:11;10.65;;;4.20;;
70322;SDS011;57735;56.264;43.898;2022-09-16T08:54:51;8.63;;;4.30;;
70322;SDS011;57735;56.264;43.898;2022-09-16T08:57:30;9.98;;;4.57;;
70322;SDS011;57735;56.264;43.898;2022-09-16T09:00:12;7.57;;;4.45;;
70322;SDS011;57735;56.264;43.898;2022-09-16T09:03:46;5.90;;;3.78;;
70322;SDS011;57735;56.264;43.898;2022-09-16T09:06:01;13.02;;;6.78;;
70322;SDS011;57735;56.264;43.898;2022-09-16T09:08:56;14.77;;;7.55;;
70322;SDS011;57735;56.264;43.898;2022-09-16T09:11:52;18.92;;;7.93;;
70322;SDS011;57735;56.264;43.898;2022-09-16T09:23:12;8.43;;;5.28;;
70322;SDS011;57735;56.264;43.898;2022-09-16T09:25:58;11.18;;;5.85;;
70322;SDS011;57735;56.264;43.898;2022-09-16T09:40:19;8.13;;;3.63;;
70322;SDS011;57735;56.264;43.898;2022-09-16T09:46:23;18.80;;;7.40;;
70322;SDS011;57735;56.264;43.898;2022-09-16T09:49:15;8.38;;;5.80;;
70322;SDS011;57735;56.264;43.898;2022-09-16T09:51:56;10.82;;;5.22;;
70322;SDS011;57735;56.264;43.898;2022-09-16T09:54:45;7.60;;;4.88;;
70322;SDS011;57735;56.264;43.898;2022-09-16T09:57:36;7.00;;;3.97;;
70322;SDS011;57735;56.264;43.898;2022-09-16T10:00:40;9.77;;;4.47;;
70322;SDS011;57735;56.264;43.898;2022-09-16T10:03:15;6.90;;;4.10;;
70322;SDS011;57735;56.264;43.898;2022-09-16T10:05:47;8.25;;;4.07;;
70322;SDS011;57735;56.264;43.898;2022-09-16T10:08:29;7.43;;;4.10;;
70322;SDS011;57735;56.264;43.898;2022-09-16T10:11:18;8.02;;;4.00;;
70322;SDS011;57735;56.264;43.898;2022-09-16T10:13:52;6.78;;;3.85;;
70322;SDS011;57735;56.264;43.898;2022-09-16T10:16:34;9.30;;;3.92;;
70322;SDS011;57735;56.264;43.898;2022-09-16T10:19:14;7.53;;;4.45;;
70322;SDS011;57735;56.264;43.898;2022-09-16T10:21:49;9.93;;;3.90;;
70322;SDS011;57735;56.264;43.898;2022-09-16T10:24:39;8.25;;;4.70;;
70322;SDS011;57735;56.264;43.898;2022-09-16T10:27:28;17.23;;;9.35;;
70322;SDS011;57735;56.264;43.898;2022-09-16T10:33:02;7.18;;;3.35;;
70322;SDS011;57735;56.264;43.898;2022-09-16T10:35:37;7.35;;;2.83;;
70322;SDS011;57735;56.264;43.898;2022-09-16T10:43:23;9.85;;;5.90;;
70322;SDS011;57735;56.264;43.898;2022-09-16T10:45:55;10.90;;;5.82;;
70322;SDS011;57735;56.264;43.898;2022-09-16T10:48:28;8.07;;;4.57;;
70322;SDS011;57735;56.264;43.898;2022-09-16T10:51:02;8.18;;;4.25;;
70322;SDS011;57735;56.264;43.898;2022-09-16T10:53:36;8.13;;;4.50;;
70322;SDS011;57735;56.264;43.898;2022-09-16T10:56:15;10.77;;;4.25;;
70322;SDS011;57735;56.264;43.898;2022-09-16T10:58:48;8.35;;;4.88;;
70322;SDS011;57735;56.264;43.898;2022-09-16T11:04:20;9.65;;;4.28;;
70322;SDS011;57735;56.264;43.898;2022-09-16T11:07:35;7.07;;;3.55;;
70322;SDS011;57735;56.264;43.898;2022-09-16T11:13:45;4.43;;;2.85;;
70322;SDS011;57735;56.264;43.898;2022-09-16T11:28:14;5.50;;;2.80;;
70322;SDS011;57735;56.264;43.898;2022-09-16T11:33:39;12.82;;;2.80;;
70322;SDS011;57735;56.264;43.898;2022-09-16T11:45:10;10.80;;;6.25;;
70322;SDS011;57735;56.264;43.898;2022-09-16T11:50:57;10.73;;;6.70;;
70322;SDS011;57735;56.264;43.898;2022-09-16T11:56:42;9.52;;;5.05;;
70322;SDS011;57735;56.264;43.898;2022-09-16T12:04:50;10.10;;;3.38;;
70322;SDS011;57735;56.264;43.898;2022-09-16T12:07:38;7.20;;;3.17;;
70322;SDS011;57735;56.264;43.898;2022-09-16T12:10:24;4.60;;;2.55;;
70322;SDS011;57735;56.264;43.898;2022-09-16T12:13:09;8.63;;;2.80;;
70322;SDS011;57735;56.264;43.898;2022-09-16T12:15:56;10.18;;;3.08;;
70322;SDS011;57735;56.264;43.898;2022-09-16T12:18:33;7.90;;;4.53;;
70322;SDS011;57735;56.264;43.898;2022-09-16T12:23:52;4.97;;;3.33;;
70322;SDS011;57735;56.264;43.898;2022-09-16T12:26:51;5.07;;;3.20;;
70322;SDS011;57735;56.264;43.898;2022-09-16T12:32:34;8.20;;;3.47;;
70322;SDS011;57735;56.264;43.898;2022-09-16T12:35:36;5.35;;;2.40;;
70322;SDS011;57735;56.264;43.898;2022-09-16T12:38:17;6.47;;;2.50;;
70322;SDS011;57735;56.264;43.898;2022-09-16T12:43:40;5.53;;;2.08;;
70322;SDS011;57735;56.264;43.898;2022-09-16T12:57:11;5.68;;;2.90;;
70322;SDS011;57735;56.264;43.898;2022-09-16T13:02:53;3.47;;;1.70;;
70322;SDS011;57735;56.264;43.898;2022-09-16T13:05:47;4.82;;;1.80;;
70322;SDS011;57735;56.264;43.898;2022-09-16T13:08:24;6.18;;;1.85;;
70322;SDS011;57735;56.264;43.898;2022-09-16T13:11:00;3.88;;;1.70;;
70322;SDS011;57735;56.264;43.898;2022-09-16T13:13:45;2.88;;;1.70;;
70322;SDS011;57735;56.264;43.898;2022-09-16T13:16:28;7.35;;;1.65;;
70322;SDS011;57735;56.264;43.898;2022-09-16T13:19:12;5.15;;;1.55;;
70322;SDS011;57735;56.264;43.898;2022-09-16T13:21:58;5.85;;;1.63;;
70322;SDS011;57735;56.264;43.898;2022-09-16T13:24:44;2.65;;;2.13;;
70322;SDS011;57735;56.264;43.898;2022-09-16T13:27:23;5.15;;;1.90;;
70322;SDS011;57735;56.264;43.898;2022-09-16T13:32:42;7.35;;;3.30;;
70322;SDS011;57735;56.264;43.898;2022-09-16T13:35:21;14.23;;;4.65;;
70322;SDS011;57735;56.264;43.898;2022-09-16T13:40:55;12.10;;;4.10;;
70322;SDS011;57735;56.264;43.898;2022-09-16T13:46:12;8.27;;;3.65;;
70322;SDS011;57735;56.264;43.898;2022-09-16T13:49:17;13.33;;;5.50;;
70322;SDS011;57735;56.264;43.898;2022-09-16T13:51:50;21.37;;;9.67;;
70322;SDS011;57735;56.264;43.898;2022-09-16T13:54:25;26.02;;;12.80;;
70322;SDS011;57735;56.264;43.898;2022-09-16T14:05:56;15.48;;;6.82;;
70322;SDS011;57735;56.264;43.898;2022-09-16T14:14:01;17.20;;;6.75;;
70322;SDS011;57735;56.264;43.898;2022-09-16T14:16:38;20.33;;;7.40;;
70322;SDS011;57735;56.264;43.898;2022-09-16T14:22:05;14.75;;;4.78;;
70322;SDS011;57735;56.264;43.898;2022-09-16T14:24:44;17.27;;;6.38;;
70322;SDS011;57735;56.264;43.898;2022-09-16T14:27:29;13.23;;;4.78;;
70322;SDS011;57735;56.264;43.898;2022-09-16T14:30:12;15.63;;;3.95;;
70322;SDS011;57735;56.264;43.898;2022-09-16T14:32:46;11.45;;;4.60;;
70322;SDS011;57735;56.264;43.898;2022-09-16T14:35:22;17.42;;;8.38;;
70322;SDS011;57735;56.264;43.898;2022-09-16T14:37:57;17.38;;;5.30;;
70322;SDS011;57735;56.264;43.898;2022-09-16T14:40:31;23.65;;;5.75;;
70322;SDS011;57735;56.264;43.898;2022-09-16T14:43:05;17.08;;;4.13;;
70322;SDS011;57735;56.264;43.898;2022-09-16T14:45:38;27.55;;;3.85;;
70322;SDS011;57735;56.264;43.898;2022-09-16T14:48:16;9.57;;;5.65;;
70322;SDS011;57735;56.264;43.898;2022-09-16T14:50:50;21.60;;;4.90;;
70322;SDS011;57735;56.264;43.898;2022-09-16T14:53:31;12.73;;;2.63;;
70322;SDS011;57735;56.264;43.898;2022-09-16T14:56:14;9.68;;;2.80;;
70322;SDS011;57735;56.264;43.898;2022-09-16T14:58:49;7.38;;;2.22;;
70322;SDS011;57735;56.264;43.898;2022-09-16T15:01:25;8.02;;;2.22;;
70322;SDS011;57735;56.264;43.898;2022-09-16T15:04:02;5.57;;;2.50;;
70322;SDS011;57735;56.264;43.898;2022-09-16T15:06:40;6.22;;;2.17;;
70322;SDS011;57735;56.264;43.898;2022-09-16T15:12:00;5.57;;;2.53;;
70322;SDS011;57735;56.264;43.898;2022-09-16T15:14:35;9.50;;;2.22;;
70322;SDS011;57735;56.264;43.898;2022-09-16T15:17:07;3.28;;;2.05;;
70322;SDS011;57735;56.264;43.898;2022-09-16T15:19:39;5.20;;;2.40;;
70322;SDS011;57735;56.264;43.898;2022-09-16T15:22:12;4.35;;;2.22;;
70322;SDS011;57735;56.264;43.898;2022-09-16T15:24:44;6.97;;;2.28;;
70322;SDS011;57735;56.264;43.898;2022-09-16T15:27:20;8.95;;;2.30;;
70322;SDS011;57735;56.264;43.898;2022-09-16T15:29:53;6.22;;;2.90;;
70322;SDS011;57735;56.264;43.898;2022-09-16T15:32:28;8.65;;;2.80;;
70322;SDS011;57735;56.264;43.898;2022-09-16T15:38:10;17.75;;;4.40;;
70322;SDS011;57735;56.264;43.898;2022-09-16T15:40:42;11.50;;;4.68;;
70322;SDS011;57735;56.264;43.898;2022-09-16T15:46:14;25.47;;;3.07;;
70322;SDS011;57735;56.264;43.898;2022-09-16T15:48:51;5.07;;;2.40;;
70322;SDS011;57735;56.264;43.898;2022-09-16T15:51:29;8.30;;;3.50;;
70322;SDS011;57735;56.264;43.898;2022-09-16T15:54:14;6.20;;;2.60;;
70322;SDS011;57735;56.264;43.898;2022-09-16T15:56:56;7.60;;;2.70;;
70322;SDS011;57735;56.264;43.898;2022-09-16T15:59:39;3.72;;;2.65;;
70322;SDS011;57735;56.264;43.898;2022-09-16T16:02:57;5.60;;;2.80;;
70322;SDS011;57735;56.264;43.898;2022-09-16T16:05:17;5.82;;;2.92;;
70322;SDS011;57735;56.264;43.898;2022-09-16T16:07:52;11.35;;;4.40;;
70322;SDS011;57735;56.264;43.898;2022-09-16T16:10:25;15.68;;;6.25;;
70322;SDS011;57735;56.264;43.898;2022-09-16T16:13:01;19.02;;;8.18;;
70322;SDS011;57735;56.264;43.898;2022-09-16T16:15:34;20.38;;;8.30;;
70322;SDS011;57735;56.264;43.898;2022-09-16T16:18:07;16.90;;;6.72;;
70322;SDS011;57735;56.264;43.898;2022-09-16T16:20:39;25.20;;;7.07;;
70322;SDS011;57735;56.264;43.898;2022-09-16T16:23:10;13.07;;;5.50;;
70322;SDS011;57735;56.264;43.898;2022-09-16T16:25:44;13.32;;;5.70;;
70322;SDS011;57735;56.264;43.898;2022-09-16T16:28:17;13.35;;;6.88;;
70322;SDS011;57735;56.264;43.898;2022-09-16T16:30:48;12.13;;;7.57;;
70322;SDS011;57735;56.264;43.898;2022-09-16T16:33:21;12.93;;;7.85;;
70322;SDS011;57735;56.264;43.898;2022-09-16T16:35:52;9.57;;;7.10;;
70322;SDS011;57735;56.264;43.898;2022-09-16T16:38:22;17.85;;;7.60;;
70322;SDS011;57735;56.264;43.898;2022-09-16T16:40:53;15.23;;;7.47;;
70322;SDS011;57735;56.264;43.898;2022-09-16T16:43:24;9.35;;;6.38;;
70322;SDS011;57735;56.264;43.898;2022-09-16T16:45:55;10.55;;;6.25;;
70322;SDS011;57735;56.264;43.898;2022-09-16T16:48:26;9.20;;;4.82;;
70322;SDS011;57735;56.264;43.898;2022-09-16T16:50:58;9.52;;;4.68;;
70322;SDS011;57735;56.264;43.898;2022-09-16T16:53:34;7.65;;;4.18;;
70322;SDS011;57735;56.264;43.898;2022-09-16T16:56:08;7.63;;;3.42;;
70322;SDS011;57735;56.264;43.898;2022-09-16T16:58:41;5.45;;;3.00;;
70322;SDS011;57735;56.264;43.898;2022-09-16T17:01:17;4.28;;;2.70;;
70322;SDS011;57735;56.264;43.898;2022-09-16T17:03:49;3.65;;;2.78;;
70322;SDS011;57735;56.264;43.898;2022-09-16T17:06:20;7.78;;;3.03;;
70322;SDS011;57735;56.264;43.898;2022-09-16T17:08:51;6.30;;;3.03;;
70322;SDS011;57735;56.264;43.898;2022-09-16T17:11:22;4.97;;;3.00;;
70322;SDS011;57735;56.264;43.898;2022-09-16T17:13:58;3.63;;;2.83;;
70322;SDS011;57735;56.264;43.898;2022-09-16T17:16:32;5.97;;;3.38;;
70322;SDS011;57735;56.264;43.898;2022-09-16T17:19:04;6.22;;;3.10;;
70322;SDS011;57735;56.264;43.898;2022-09-16T17:21:35;8.13;;;3.25;;
70322;SDS011;57735;56.264;43.898;2022-09-16T17:24:06;5.78;;;3.05;;
70322;SDS011;57735;56.264;43.898;2022-09-16T17:26:37;5.90;;;3.20;;
70322;SDS011;57735;56.264;43.898;2022-09-16T17:29:08;4.13;;;3.28;;
70322;SDS011;57735;56.264;43.898;2022-09-16T17:31:39;10.13;;;5.22;;
70322;SDS011;57735;56.264;43.898;2022-09-16T17:34:11;13.23;;;6.70;;
70322;SDS011;57735;56.264;43.898;2022-09-16T17:36:44;29.10;;;13.60;;
70322;SDS011;57735;56.264;43.898;2022-09-16T17:39:17;30.60;;;13.20;;
70322;SDS011;57735;56.264;43.898;2022-09-16T17:41:49;18.45;;;10.02;;
70322;SDS011;57735;56.264;43.898;2022-09-16T17:44:20;19.52;;;9.90;;
70322;SDS011;57735;56.264;43.898;2022-09-16T17:46:51;13.40;;;7.22;;
70322;SDS011;57735;56.264;43.898;2022-09-16T17:49:22;11.23;;;5.25;;
70322;SDS011;57735;56.264;43.898;2022-09-16T17:51:54;8.05;;;4.47;;
70322;SDS011;57735;56.264;43.898;2022-09-16T17:54:24;12.98;;;5.38;;
70322;SDS011;57735;56.264;43.898;2022-09-16T17:56:55;7.47;;;4.40;;
70322;SDS011;57735;56.264;43.898;2022-09-16T17:59:26;6.85;;;4.20;;
70322;SDS011;57735;56.264;43.898;2022-09-16T18:01:57;9.00;;;3.50;;
70322;SDS011;57735;56.264;43.898;2022-09-16T18:04:28;10.73;;;3.63;;
70322;SDS011;57735;56.264;43.898;2022-09-16T18:07:00;10.70;;;3.10;;
70322;SDS011;57735;56.264;43.898;2022-09-16T18:09:31;4.85;;;3.10;;
70322;SDS011;57735;56.264;43.898;2022-09-16T18:12:01;5.65;;;3.13;;
70322;SDS011;57735;56.264;43.898;2022-09-16T18:14:32;5.15;;;3.17;;
70322;SDS011;57735;56.264;43.898;2022-09-16T18:17:06;6.40;;;3.53;;
70322;SDS011;57735;56.264;43.898;2022-09-16T18:19:37;10.98;;;3.17;;